Main page
METAR-TAF:

METAR-TAF

Airports :

Durban, South Africa

King Shaka International Airport

latitude: 29-36-52S, longitude: 031-06-59E, elevation: 90 m

Current weather observation

The report was made 46 minutes ago, at 07:00 UTC
Wind 1 kt from variable directions
Temperature 23°C
Humidity 69%
Pressure 1016 hPa
Visibility 10 km or more
no clouds below 1500 m and no cumulonimbus

METAR: FALE 230700Z VRB01KT CAVOK 23/17 Q1016 NOSIG

Time: 09:46 (07:46 UTC)

Forecast

The report was made 3 hours and 46 minutes ago, at 04:00 UTC
Forecast valid from 23 at 06 UTC to 24 at 12 UTC
Wind 12 kt from the Northeast
Visibility 10 km or more
no clouds below 1500 m and no cumulonimbus
Becoming
from 23 at 18 UTC to 23 at 20 UTC
Wind 5 kt from the North/Northwest
Becoming
from 24 at 08 UTC to 24 at 10 UTC
Wind 15 kt from the South/Southwest with gusts up to 25 kt
Scattered clouds at a height of 2500 ft

TAF: FALE 230400Z 2306/2412 04012KT CAVOK BECMG 2318/2320 34005KT BECMG 2408/2410 20015G25KT SCT025 TX29/2312Z TN18/2404Z

Weather observations and forecasts of more than 4000 airports (METAR and TAF reports).

The available stations are represented by yellow and red dots on the map.

Hover mouse over dot to see the name of the station.

Then click to see weather observations and forecasts.

To change the map : click on the green buttons with a black cross to zoom in, on the green button with a dash to zoom out, or on the green arrows for adjacent maps.


METAR-TAF: